Time;durP1;ratioP1;P1;durP2;ratioP2;P2;SDS_P1;SDS_P2;PMS_P1;PMS_P2;Temp;Humidity;BMP_temperature;BMP_pressure;BME280_temperature;BME280_humidity;BME280_pressure;Samples;Min_cycle;Max_cycle;Signal;HPM_P1;HPM_P2
2021/04/30 00:00:38;;;;;;;4.80;4.40;;;;;;;13.44;75.73;95009.28;4993892;28;20247;-84
2021/04/30 00:03:04;;;;;;;5.10;4.60;;;;;;;13.44;75.72;95004.91;5013694;28;20205;-83
2021/04/30 00:05:31;;;;;;;5.27;4.77;;;;;;;13.47;75.56;95004.44;5013600;28;20203;-85
2021/04/30 00:07:57;;;;;;;5.03;4.57;;;;;;;13.46;74.73;95004.69;4995879;28;20618;-85
2021/04/30 00:10:24;;;;;;;4.77;4.37;;;;;;;13.44;75.14;94998.94;5012852;28;20230;-85
2021/04/30 00:12:50;;;;;;;17.47;15.77;;;;;;;13.45;76.08;94995.34;4995742;28;20326;-83
2021/04/30 00:15:17;;;;;;;13.10;11.90;;;;;;;13.47;75.85;94991.53;4993627;28;20816;-84
2021/04/30 00:17:44;;;;;;;5.30;4.80;;;;;;;13.38;75.30;94995.38;5009678;28;20272;-85
2021/04/30 00:20:12;;;;;;;5.07;4.40;;;;;;;13.42;74.75;95003.50;5013068;28;20219;-84
2021/04/30 00:22:38;;;;;;;4.70;4.30;;;;;;;13.37;75.49;94998.16;5012795;28;20678;-82
2021/04/30 00:25:05;;;;;;;5.10;4.60;;;;;;;13.37;74.86;94995.56;5009453;28;20202;-82
2021/04/30 00:27:31;;;;;;;5.17;4.77;;;;;;;13.39;74.47;95002.13;4994245;28;20207;-85
2021/04/30 00:29:58;;;;;;;4.50;4.10;;;;;;;13.40;74.24;94995.97;4995095;28;20792;-86
2021/04/30 00:32:24;;;;;;;4.90;4.33;;;;;;;13.40;75.01;94990.78;4994752;28;20209;-84
2021/04/30 00:34:50;;;;;;;5.53;4.20;;;;;;;13.39;74.37;94983.25;5007422;28;20259;-84
2021/04/30 00:37:16;;;;;;;4.40;4.00;;;;;;;13.36;73.75;94989.63;5013333;28;20199;-85
2021/04/30 00:39:42;;;;;;;4.43;4.03;;;;;;;13.39;73.83;94988.41;4995626;28;20609;-84
2021/04/30 00:42:08;;;;;;;4.57;4.17;;;;;;;13.42;74.23;94975.84;4994133;28;20283;-84
2021/04/30 00:44:34;;;;;;;4.63;4.03;;;;;;;13.42;74.39;94981.03;5009132;28;20195;-85
2021/04/30 00:47:02;;;;;;;4.80;4.40;;;;;;;13.46;74.08;94979.63;4995311;28;20273;-85
2021/04/30 00:49:27;;;;;;;4.50;4.10;;;;;;;13.44;73.91;94983.41;5006800;28;20198;-85
2021/04/30 00:51:53;;;;;;;5.60;4.57;;;;;;;13.39;74.24;94981.44;4995553;28;20239;-86
2021/04/30 00:54:20;;;;;;;4.87;4.40;;;;;;;13.34;74.47;94986.44;5005623;28;20265;-85
2021/04/30 00:56:46;;;;;;;4.87;4.47;;;;;;;13.32;74.81;94991.03;5013216;28;20199;-86
2021/04/30 00:59:12;;;;;;;6.60;4.57;;;;;;;13.29;75.65;94991.44;4996788;28;20238;-85
2021/04/30 01:01:39;;;;;;;4.80;4.40;;;;;;;13.28;75.17;94997.59;5007755;28;20222;-86
2021/04/30 01:04:07;;;;;;;4.53;4.23;;;;;;;13.32;75.00;94998.00;5013113;28;20233;-84
2021/04/30 01:06:33;;;;;;;4.53;4.17;;;;;;;13.29;75.34;94996.59;4998641;28;20214;-84
2021/04/30 01:09:02;;;;;;;4.67;4.30;;;;;;;13.28;75.16;94989.84;4993339;28;20723;-84
2021/04/30 01:11:28;;;;;;;4.97;4.47;;;;;;;13.27;75.44;94997.84;4991698;28;20255;-84
2021/04/30 01:13:54;;;;;;;4.77;4.37;;;;;;;13.26;75.14;94996.25;4993374;28;20802;-85
2021/04/30 01:16:20;;;;;;;5.20;4.70;;;;;;;13.27;75.38;94998.63;5007316;28;20681;-84
2021/04/30 01:18:47;;;;;;;4.60;4.20;;;;;;;13.27;75.54;95006.38;5012705;28;20346;-84
2021/04/30 01:21:14;;;;;;;4.60;4.20;;;;;;;13.29;75.01;95013.91;4998566;28;20220;-84
2021/04/30 01:23:50;;;;;;;5.87;4.50;;;;;;;13.30;75.47;95015.50;5006653;28;20199;-85
2021/04/30 01:26:16;;;;;;;5.17;4.40;;;;;;;13.30;75.50;95018.88;4998261;28;20202;-84
2021/04/30 01:28:42;;;;;;;5.00;4.50;;;;;;;13.30;75.43;95020.66;4992539;28;20234;-83
2021/04/30 01:31:09;;;;;;;4.47;4.07;;;;;;;13.29;76.45;95019.88;4994895;28;20234;-84
2021/04/30 01:33:35;;;;;;;4.73;4.17;;;;;;;13.34;75.53;95014.88;4992067;28;20859;-84
2021/04/30 01:36:01;;;;;;;4.30;3.93;;;;;;;13.38;76.21;95016.06;5006226;28;20218;-85
2021/04/30 01:38:27;;;;;;;4.20;3.90;;;;;;;13.42;75.24;95019.03;5012035;28;20267;-85
2021/04/30 01:40:54;;;;;;;4.57;4.17;;;;;;;13.42;74.63;95016.44;4998110;28;20226;-85
2021/04/30 01:43:21;;;;;;;4.37;4.07;;;;;;;13.40;75.06;95018.44;4992206;28;20207;-84
2021/04/30 01:45:52;;;;;;;4.57;4.17;;;;;;;13.37;75.47;95019.66;5002993;28;20195;-85
2021/04/30 01:48:19;;;;;;;6.17;4.00;;;;;;;13.34;75.61;95011.50;4996829;28;20273;-84
2021/04/30 01:50:46;;;;;;;4.53;4.20;;;;;;;13.36;75.42;95010.31;5003238;28;20222;-85
2021/04/30 01:53:14;;;;;;;4.70;4.27;;;;;;;13.35;76.03;95006.13;5011180;28;20633;-83
2021/04/30 01:55:40;;;;;;;4.40;4.10;;;;;;;13.38;75.71;95008.31;5001149;28;20199;-83
2021/04/30 01:58:07;;;;;;;4.20;3.80;;;;;;;13.41;75.25;95012.28;4992308;28;20208;-84
2021/04/30 02:00:34;;;;;;;4.30;4.00;;;;;;;13.43;75.01;95012.84;5004801;28;20213;-84
2021/04/30 02:03:00;;;;;;;4.40;4.00;;;;;;;13.47;74.57;95019.19;5010318;28;20199;-85
2021/04/30 02:05:28;;;;;;;4.80;4.20;;;;;;;13.46;75.21;95020.22;4997826;28;20293;-83
2021/04/30 02:07:55;;;;;;;4.40;3.80;;;;;;;13.48;75.02;95018.97;4991700;28;20207;-83
2021/04/30 02:10:22;;;;;;;4.07;3.77;;;;;;;13.47;74.91;95014.78;5002245;28;20234;-85
2021/04/30 02:12:49;;;;;;;5.63;4.00;;;;;;;13.45;75.46;95018.63;4995899;28;20238;-83
2021/04/30 02:15:18;;;;;;;4.10;3.70;;;;;;;13.47;74.82;95022.56;5000375;28;20202;-83
2021/04/30 02:17:44;;;;;;;4.57;3.80;;;;;;;13.46;74.92;95018.41;5010824;28;20199;-85
2021/04/30 02:20:12;;;;;;;4.40;4.07;;;;;;;13.42;74.84;95019.03;5000404;28;20651;-86
2021/04/30 02:22:40;;;;;;;4.10;3.80;;;;;;;13.42;74.95;95019.03;4991788;28;20261;-84
2021/04/30 02:25:08;;;;;;;4.30;3.90;;;;;;;13.42;75.22;95017.25;5006845;28;20662;-84
2021/04/30 02:27:34;;;;;;;4.30;3.90;;;;;;;13.38;75.85;95010.88;5010981;28;20249;-84
2021/04/30 02:30:00;;;;;;;4.47;4.07;;;;;;;13.38;75.47;95018.66;5010328;28;20227;-85
2021/04/30 02:32:29;;;;;;;4.30;4.00;;;;;;;13.41;75.44;95018.22;4991686;28;20867;-82
2021/04/30 02:34:56;;;;;;;4.20;3.80;;;;;;;13.43;75.81;95013.66;5004656;28;20289;-83
2021/04/30 02:37:24;;;;;;;4.03;3.73;;;;;;;13.46;75.20;95020.22;5011159;28;20211;-84
2021/04/30 02:39:50;;;;;;;4.57;4.10;;;;;;;13.44;75.31;95017.03;4998135;28;20202;-84
2021/04/30 02:42:16;;;;;;;4.10;3.80;;;;;;;13.43;74.90;95012.84;4991405;28;20196;-85
2021/04/30 02:44:43;;;;;;;4.33;4.00;;;;;;;13.40;75.21;95011.47;5001607;28;20197;-85
2021/04/30 02:47:09;;;;;;;4.03;3.73;;;;;;;13.38;75.55;95007.50;5010863;28;20309;-84
2021/04/30 02:49:40;;;;;;;4.53;4.13;;;;;;;13.37;74.99;95009.31;4997547;28;20204;-84
2021/04/30 02:52:06;;;;;;;4.80;3.87;;;;;;;13.39;74.94;95016.84;4972192;28;20232;-84
2021/04/30 02:54:33;;;;;;;4.20;3.90;;;;;;;13.33;75.97;95020.25;4994528;28;20219;-84
2021/04/30 02:56:59;;;;;;;4.87;4.47;;;;;;;13.23;77.29;95018.13;5011605;28;20217;-85
2021/04/30 02:59:25;;;;;;;4.50;4.20;;;;;;;13.21;76.99;95019.34;5003713;28;20214;-85
2021/04/30 03:01:51;;;;;;;4.63;4.23;;;;;;;13.24;76.82;95021.50;4995077;28;20223;-85
2021/04/30 03:04:17;;;;;;;4.83;4.30;;;;;;;13.24;76.56;95016.34;5004732;28;20333;-84
2021/04/30 03:06:44;;;;;;;4.60;4.20;;;;;;;13.24;76.37;95017.13;5015004;28;20237;-83
2021/04/30 03:09:09;;;;;;;4.73;4.37;;;;;;;13.26;76.35;95027.28;5006276;28;20585;-83
2021/04/30 03:11:35;;;;;;;4.97;4.47;;;;;;;13.23;76.69;95017.34;4994420;28;20238;-83
2021/04/30 03:14:01;;;;;;;5.10;4.60;;;;;;;13.24;76.15;95018.94;5001288;28;20281;-84
2021/04/30 03:16:28;;;;;;;4.73;4.33;;;;;;;13.27;76.41;95015.94;5014145;28;20222;-84
2021/04/30 03:18:54;;;;;;;4.83;4.43;;;;;;;13.27;76.40;95014.13;5007706;28;20255;-85
2021/04/30 03:21:20;;;;;;;4.73;4.33;;;;;;;13.26;76.14;95011.75;4994705;28;20224;-85
2021/04/30 03:23:47;;;;;;;5.27;4.77;;;;;;;13.28;76.28;95010.53;4995495;28;20194;-84
2021/04/30 03:26:13;;;;;;;5.23;4.83;;;;;;;13.25;76.50;95002.41;4993689;28;20200;-85
2021/04/30 03:28:39;;;;;;;4.67;4.27;;;;;;;13.16;76.54;94994.09;4993712;28;20234;-84
2021/04/30 03:31:05;;;;;;;5.80;5.30;;;;;;;13.18;76.40;94991.31;5002158;28;20218;-85
2021/04/30 03:33:31;;;;;;;5.30;4.80;;;;;;;13.19;76.12;94996.28;5003511;28;20210;-85
2021/04/30 03:35:57;;;;;;;4.73;4.33;;;;;;;13.22;76.67;95001.03;5014111;28;20257;-85
2021/04/30 03:38:23;;;;;;;5.17;4.77;;;;;;;13.15;78.03;95002.84;4997604;28;20195;-83
2021/04/30 03:40:50;;;;;;;5.23;4.77;;;;;;;13.18;77.66;94997.28;5013688;28;20236;-83
2021/04/30 03:43:16;;;;;;;5.17;4.77;;;;;;;13.22;76.98;94998.44;5011941;28;20583;-84
2021/04/30 03:45:45;;;;;;;5.23;4.70;;;;;;;13.20;76.88;95002.25;5001510;28;20198;-84
2021/04/30 03:48:11;;;;;;;5.23;4.83;;;;;;;13.25;76.59;95012.75;5004647;28;20573;-83
2021/04/30 03:50:37;;;;;;;5.40;4.90;;;;;;;13.27;75.96;95003.81;5014186;28;20248;-84
2021/04/30 03:53:03;;;;;;;5.30;4.87;;;;;;;13.21;76.79;95004.63;4999561;28;20220;-80
2021/04/30 03:55:29;;;;;;;5.50;5.00;;;;;;;13.22;77.43;95008.78;4993558;28;20614;-80
2021/04/30 03:57:56;;;;;;;5.67;5.17;;;;;;;13.19;78.15;95011.00;5005863;28;20811;-81
2021/04/30 04:00:22;;;;;;;5.63;5.07;;;;;;;13.07;78.99;95005.66;5013189;28;20223;-83
2021/04/30 04:02:48;;;;;;;7.20;5.23;;;;;;;12.90;79.89;95005.31;5001148;28;20214;-84
2021/04/30 04:05:14;;;;;;;5.37;4.97;;;;;;;12.94;79.65;95003.09;4993709;28;20199;-84
2021/04/30 04:07:40;;;;;;;5.80;5.07;;;;;;;12.88;80.04;95002.16;5003903;28;20198;-84
2021/04/30 04:10:07;;;;;;;6.73;5.60;;;;;;;12.71;81.18;95003.59;5011319;28;20730;-84
2021/04/30 04:12:33;;;;;;;6.20;5.70;;;;;;;12.69;80.67;94984.94;5003913;28;20226;-84
2021/04/30 04:15:00;;;;;;;7.23;6.50;;;;;;;12.47;81.16;94963.75;4993771;28;20246;-85
2021/04/30 04:17:26;;;;;;;6.77;6.17;;;;;;;12.45;80.90;94961.38;5003964;28;20202;-84
2021/04/30 04:19:52;;;;;;;7.17;6.47;;;;;;;12.61;80.62;94970.44;5012473;28;20718;-83
2021/04/30 04:22:19;;;;;;;6.80;6.20;;;;;;;12.77;79.33;94979.53;5004050;28;20226;-81
2021/04/30 04:24:45;;;;;;;7.00;6.40;;;;;;;12.85;78.81;94983.69;4993003;28;20296;-84
2021/04/30 04:27:12;;;;;;;6.97;6.37;;;;;;;12.87;78.83;94994.59;4993395;28;20199;-84
2021/04/30 04:29:38;;;;;;;6.73;6.10;;;;;;;13.03;77.79;95009.66;4999694;28;20198;-83
2021/04/30 04:32:06;;;;;;;5.50;5.00;;;;;;;13.27;76.74;95005.59;5012166;28;20578;-81
2021/04/30 04:34:32;;;;;;;6.40;5.87;;;;;;;13.52;75.69;95016.75;5007676;28;20223;-82
2021/04/30 04:36:58;;;;;;;6.47;5.87;;;;;;;13.58;74.73;95020.31;4995762;28;20254;-81
2021/04/30 04:39:25;;;;;;;6.17;5.57;;;;;;;13.75;74.27;95024.00;5012447;28;20195;-82
2021/04/30 04:41:51;;;;;;;5.53;5.03;;;;;;;13.77;73.76;95027.16;5010210;28;20858;-82
2021/04/30 04:44:18;;;;;;;8.03;6.17;;;;;;;13.90;72.78;95019.28;4991374;28;20199;-80
2021/04/30 04:46:44;;;;;;;7.60;7.00;;;;;;;13.96;72.87;95028.03;4988092;28;20227;-81
2021/04/30 04:49:11;;;;;;;8.70;7.90;;;;;;;13.90;72.37;95021.09;4995134;28;20203;-81
2021/04/30 04:51:37;;;;;;;9.20;8.40;;;;;;;13.75;72.96;95029.97;4992417;28;20239;-80
2021/04/30 04:54:06;;;;;;;10.17;9.17;;;;;;;13.64;73.51;95029.84;4993046;28;20220;-82
2021/04/30 04:56:32;;;;;;;10.13;9.13;;;;;;;13.44;74.73;95035.94;4993858;28;20275;-83
2021/04/30 04:58:58;;;;;;;10.77;9.77;;;;;;;13.18;76.48;95036.03;4993651;28;20199;-83
2021/04/30 05:01:25;;;;;;;11.23;10.23;;;;;;;13.06;77.61;95041.03;4992196;28;20258;-82
2021/04/30 05:03:51;;;;;;;12.47;11.27;;;;;;;12.85;77.35;95046.47;4993305;28;20666;-81
2021/04/30 05:06:18;;;;;;;12.03;10.93;;;;;;;12.86;77.15;95036.94;4990103;28;20206;-81
2021/04/30 05:08:44;;;;;;;12.80;11.70;;;;;;;12.84;77.37;95041.50;4991877;28;20238;-81
2021/04/30 05:11:10;;;;;;;13.07;11.87;;;;;;;12.71;76.76;95042.31;4988705;28;20231;-83
2021/04/30 05:13:36;;;;;;;12.87;11.67;;;;;;;12.76;77.02;95045.09;4989715;28;20218;-81
2021/04/30 05:16:03;;;;;;;12.23;11.07;;;;;;;12.86;77.17;95049.88;4988933;28;20259;-82
2021/04/30 05:18:31;;;;;;;12.60;11.30;;;;;;;12.87;76.71;95043.69;4991091;28;20820;-81
2021/04/30 05:20:57;;;;;;;12.73;11.40;;;;;;;12.86;76.46;95048.06;4991153;28;20223;-80
2021/04/30 05:23:25;;;;;;;13.30;12.10;;;;;;;12.87;76.20;95056.63;4991005;28;20290;-82
2021/04/30 05:25:53;;;;;;;12.83;11.63;;;;;;;12.67;77.08;95052.28;4991722;28;20227;-81
2021/04/30 05:28:19;;;;;;;13.43;12.13;;;;;;;12.66;77.32;95050.69;4986327;28;20210;-81
2021/04/30 05:30:45;;;;;;;13.50;12.20;;;;;;;12.76;76.31;95058.03;4991220;28;20621;-83
2021/04/30 05:33:11;;;;;;;13.50;12.00;;;;;;;12.72;76.35;95059.41;4991740;28;20223;-83
2021/04/30 05:35:38;;;;;;;13.47;12.07;;;;;;;12.71;75.56;95052.66;4991883;28;20227;-81
2021/04/30 05:38:05;;;;;;;14.37;13.07;;;;;;;12.61;75.97;95060.03;4991486;28;20203;-81
2021/04/30 05:40:32;;;;;;;13.37;12.17;;;;;;;12.70;75.54;95058.84;4991314;28;20809;-81
2021/04/30 05:42:58;;;;;;;14.63;13.13;;;;;;;12.80;74.89;95054.03;4991972;28;20222;-81
2021/04/30 05:45:25;;;;;;;13.13;11.53;;;;;;;12.87;73.97;95046.28;4991301;28;20203;-81
2021/04/30 05:47:53;;;;;;;12.83;11.73;;;;;;;12.89;72.58;95044.28;4991529;28;20195;-80
2021/04/30 05:50:20;;;;;;;13.10;11.87;;;;;;;12.90;72.68;95056.97;4991108;28;20262;-82
2021/04/30 05:52:46;;;;;;;13.57;12.27;;;;;;;12.96;72.31;95061.34;4991397;28;20735;-81
2021/04/30 05:55:13;;;;;;;12.57;11.47;;;;;;;13.05;71.59;95061.94;4991519;28;20238;-82
2021/04/30 05:57:40;;;;;;;13.60;12.40;;;;;;;13.15;71.36;95062.31;4992310;28;20270;-83
2021/04/30 06:00:09;;;;;;;14.37;12.90;;;;;;;12.83;70.29;95061.38;4991836;28;20227;-80
2021/04/30 06:02:35;;;;;;;13.97;12.67;;;;;;;12.51;72.64;95075.94;4991694;28;20851;-81
2021/04/30 06:05:02;;;;;;;14.07;12.67;;;;;;;12.47;73.59;95079.94;4991704;28;20210;-81
2021/04/30 06:07:28;;;;;;;13.63;12.10;;;;;;;12.52;73.53;95084.47;4992272;28;20208;-80
2021/04/30 06:09:54;;;;;;;14.43;13.13;;;;;;;12.51;74.74;95091.44;4990661;28;20705;-82
2021/04/30 06:12:20;;;;;;;14.13;12.73;;;;;;;12.63;74.19;95097.59;4991543;28;20242;-79
2021/04/30 06:14:47;;;;;;;14.63;12.43;;;;;;;12.79;73.65;95089.41;4990817;28;20230;-79
2021/04/30 06:17:15;;;;;;;15.10;13.07;;;;;;;12.96;73.30;95088.97;4991337;28;20281;-81
2021/04/30 06:19:41;;;;;;;14.17;12.87;;;;;;;12.88;73.60;95087.41;4990818;28;20199;-82
2021/04/30 06:22:07;;;;;;;17.60;12.90;;;;;;;13.09;72.95;95094.09;4992282;28;20196;-82
2021/04/30 06:24:33;;;;;;;17.97;16.27;;;;;;;13.21;71.50;95102.06;4992036;28;20214;-82
2021/04/30 06:26:59;;;;;;;39.70;35.60;;;;;;;13.32;70.92;95097.03;4991486;28;20230;-79
2021/04/30 06:29:24;;;;;;;20.07;17.90;;;;;;;13.38;70.12;95096.22;4991529;28;20213;-79
2021/04/30 06:31:51;;;;;;;13.60;12.40;;;;;;;13.38;69.83;95092.84;4990441;28;20224;-80
2021/04/30 06:34:17;;;;;;;14.40;13.10;;;;;;;13.39;69.82;95092.63;4991280;28;20282;-83
2021/04/30 06:36:46;;;;;;;14.93;13.10;;;;;;;13.45;69.94;95091.81;4991796;28;20631;-81
2021/04/30 06:39:13;;;;;;;13.87;12.67;;;;;;;13.53;68.90;95077.84;4991697;28;20200;-80
2021/04/30 06:41:39;;;;;;;13.37;12.07;;;;;;;13.63;68.07;95073.03;4990909;28;20223;-81
2021/04/30 06:44:05;;;;;;;15.00;12.77;;;;;;;13.47;66.72;95069.09;4990919;28;20270;-81
2021/04/30 06:46:31;;;;;;;13.30;12.00;;;;;;;13.69;67.80;95073.97;4991235;28;20210;-81
2021/04/30 06:49:01;;;;;;;14.23;12.43;;;;;;;13.98;67.89;95070.81;4990619;28;20200;-81
2021/04/30 06:51:27;;;;;;;13.40;12.10;;;;;;;13.82;66.96;95071.31;4991044;28;20882;-82
2021/04/30 06:53:53;;;;;;;14.03;12.70;;;;;;;13.93;67.52;95075.81;4991676;28;20223;-83
2021/04/30 06:56:20;;;;;;;13.70;12.40;;;;;;;14.08;67.14;95076.31;4991139;28;20211;-82
2021/04/30 06:58:46;;;;;;;13.73;12.30;;;;;;;14.09;66.29;95072.72;4991398;28;20250;-83
2021/04/30 07:01:13;;;;;;;14.70;13.30;;;;;;;14.00;66.23;95074.00;4991616;28;20703;-83
2021/04/30 07:03:39;;;;;;;13.80;12.47;;;;;;;13.97;66.31;95077.00;4991485;28;20694;-84
2021/04/30 07:06:06;;;;;;;14.63;13.23;;;;;;;13.72;66.81;95083.91;4991655;28;20207;-84
2021/04/30 07:08:32;;;;;;;14.67;12.60;;;;;;;13.73;67.17;95077.72;4991549;28;20214;-83
2021/04/30 07:11:00;;;;;;;13.20;12.10;;;;;;;13.71;67.15;95075.34;4990130;28;20660;-84
2021/04/30 07:13:26;;;;;;;13.77;12.37;;;;;;;13.87;66.84;95068.09;4990865;28;20286;-83
2021/04/30 07:15:52;;;;;;;12.97;11.77;;;;;;;13.88;66.17;95072.25;4990280;28;20211;-82
2021/04/30 07:18:18;;;;;;;13.53;12.33;;;;;;;13.95;65.52;95070.44;4989750;28;20196;-84
2021/04/30 07:20:45;;;;;;;14.03;12.73;;;;;;;13.95;64.98;95058.28;4990223;28;20220;-84
2021/04/30 07:23:12;;;;;;;14.40;13.10;;;;;;;13.92;64.97;95055.31;4992812;28;20282;-84
2021/04/30 07:25:41;;;;;;;14.07;12.20;;;;;;;13.97;65.32;95051.09;4992727;28;20203;-84
2021/04/30 07:28:33;;;;;;;15.23;13.70;;;;;;;13.92;65.13;95042.38;4991900;28;20849;-83
2021/04/30 07:30:59;;;;;;;15.40;12.40;;;;;;;14.11;65.34;95028.50;4991745;28;20625;-84
2021/04/30 07:33:27;;;;;;;14.87;13.10;;;;;;;14.34;64.77;95033.09;4991919;28;20289;-85
2021/04/30 07:35:53;;;;;;;14.03;12.60;;;;;;;14.50;64.16;95025.59;4992368;28;20200;-85
2021/04/30 07:38:20;;;;;;;13.47;12.23;;;;;;;14.64;63.59;95020.25;4991976;28;20251;-82
2021/04/30 07:40:48;;;;;;;13.93;12.63;;;;;;;14.59;62.52;95014.94;4991387;28;20266;-84
2021/04/30 07:43:17;;;;;;;13.27;11.93;;;;;;;14.80;62.40;95019.72;4993620;28;20266;-85
2021/04/30 07:45:45;;;;;;;13.67;12.27;;;;;;;14.95;61.48;95027.13;4996272;28;20616;-85
2021/04/30 07:48:14;;;;;;;12.90;11.80;;;;;;;15.14;61.30;95034.66;4993984;28;20227;-84
2021/04/30 07:50:40;;;;;;;12.37;11.30;;;;;;;15.17;60.53;95036.03;4995250;28;20223;-86
2021/04/30 07:53:06;;;;;;;13.80;12.40;;;;;;;14.85;60.25;95027.59;4996476;28;20200;-86
2021/04/30 07:55:36;;;;;;;16.60;12.67;;;;;;;14.74;61.38;95026.53;4995269;28;20257;-86
2021/04/30 07:58:02;;;;;;;14.23;12.73;;;;;;;14.74;60.07;95034.31;4994806;28;20207;-84
2021/04/30 08:00:29;;;;;;;13.93;12.53;;;;;;;14.96;60.08;95018.34;4994259;28;20278;-86
2021/04/30 08:02:56;;;;;;;14.03;12.63;;;;;;;14.81;60.04;95014.31;4994944;28;20698;-85
2021/04/30 08:05:23;;;;;;;14.50;13.13;;;;;;;14.50;60.86;95009.25;4993366;28;20211;-84
2021/04/30 08:07:49;;;;;;;13.60;12.30;;;;;;;14.44;61.83;95012.69;4994200;28;20199;-86
2021/04/30 08:10:16;;;;;;;14.33;12.87;;;;;;;14.35;61.43;94998.41;4994295;28;20308;-86
2021/04/30 08:12:43;;;;;;;14.00;12.77;;;;;;;14.50;61.11;94999.69;4995307;28;20760;-85
2021/04/30 08:15:11;;;;;;;14.23;12.77;;;;;;;14.83;61.11;95004.50;4995792;28;20223;-85
2021/04/30 08:17:37;;;;;;;13.57;12.27;;;;;;;15.03;59.92;95004.28;4994996;28;20282;-84
2021/04/30 08:20:05;;;;;;;12.93;11.83;;;;;;;15.08;59.34;95003.63;4995058;28;20227;-85
2021/04/30 08:22:32;;;;;;;13.13;11.93;;;;;;;14.77;59.89;95007.19;4994843;28;20210;-85
2021/04/30 08:24:58;;;;;;;13.97;12.77;;;;;;;14.52;60.38;95002.06;4995163;28;21501;-85
2021/04/30 08:27:24;;;;;;;13.57;12.37;;;;;;;14.65;60.64;95004.50;4995336;28;20207;-85
2021/04/30 08:29:51;;;;;;;13.67;12.37;;;;;;;14.85;60.45;94997.31;4994758;28;20208;-85
2021/04/30 08:32:18;;;;;;;13.57;12.37;;;;;;;15.23;60.01;94982.47;4994814;28;20199;-85
2021/04/30 08:34:47;;;;;;;13.53;12.30;;;;;;;15.51;59.07;94975.72;4995098;28;20224;-85
2021/04/30 08:37:13;;;;;;;12.77;11.57;;;;;;;15.99;58.37;94961.81;4994691;28;20206;-85
2021/04/30 08:39:39;;;;;;;13.60;11.60;;;;;;;15.93;55.78;94970.53;4994451;28;20261;-85
2021/04/30 08:42:05;;;;;;;12.83;11.63;;;;;;;15.83;56.86;94960.69;4994601;28;20212;-85
2021/04/30 08:44:31;;;;;;;12.63;11.53;;;;;;;15.85;56.95;94963.84;4994629;28;20239;-84
2021/04/30 08:47:00;;;;;;;15.83;11.47;;;;;;;15.90;57.73;94957.97;4994518;28;20207;-86
2021/04/30 08:49:26;;;;;;;12.23;11.13;;;;;;;15.61;57.83;94951.03;4994273;28;20690;-86
2021/04/30 08:51:52;;;;;;;11.70;10.53;;;;;;;15.42;59.44;94958.06;4994687;28;20236;-85
2021/04/30 08:54:19;;;;;;;13.17;11.77;;;;;;;15.35;59.20;94957.41;4994610;28;20220;-85
2021/04/30 08:56:47;;;;;;;11.87;10.70;;;;;;;15.27;58.67;94955.91;4994227;28;20195;-85
2021/04/30 08:59:28;;;;;;;11.57;10.53;;;;;;;15.59;58.34;94940.13;4995076;28;20298;-84
2021/04/30 09:01:54;;;;;;;11.77;10.77;;;;;;;15.80;57.88;94936.97;4991938;28;20942;-85
2021/04/30 09:04:22;;;;;;;12.30;11.13;;;;;;;15.89;58.39;94938.22;4994645;28;20277;-86
2021/04/30 09:06:48;;;;;;;12.90;11.50;;;;;;;15.53;59.55;94945.16;4995007;28;20219;-86
2021/04/30 09:09:17;;;;;;;12.57;11.47;;;;;;;15.88;58.72;94941.84;4994110;28;20207;-85
2021/04/30 09:11:45;;;;;;;11.07;10.07;;;;;;;15.91;58.21;94938.00;4993754;28;20254;-85
2021/04/30 09:14:23;;;;;;;11.50;10.30;;;;;;;15.78;58.15;94929.41;4995185;28;20228;-85
2021/04/30 09:17:06;;;;;;;11.00;9.70;;;;;;;15.79;58.80;94920.59;4994459;28;20269;-85
2021/04/30 09:19:35;;;;;;;11.07;10.10;;;;;;;15.76;58.95;94925.47;4994014;28;20191;-86
2021/04/30 09:22:04;;;;;;;11.77;10.67;;;;;;;15.79;59.22;94907.63;4993992;28;20238;-84
2021/04/30 09:24:30;;;;;;;10.53;9.63;;;;;;;15.73;59.52;94918.13;4994525;28;20539;-85
2021/04/30 09:26:58;;;;;;;10.77;9.80;;;;;;;15.71;59.04;94915.75;4994288;28;20253;-85
2021/04/30 09:29:26;;;;;;;10.53;9.53;;;;;;;15.79;59.57;94904.22;4993621;28;20226;-85
2021/04/30 09:31:52;;;;;;;10.57;9.67;;;;;;;15.78;59.71;94905.25;4993832;28;20223;-86
2021/04/30 09:34:26;;;;;;;11.20;10.10;;;;;;;15.75;59.97;94896.13;4994164;28;20262;-85
2021/04/30 09:37:04;;;;;;;10.50;9.60;;;;;;;16.18;60.56;94900.94;4994410;28;20203;-84
2021/04/30 09:39:46;;;;;;;10.80;9.80;;;;;;;16.24;58.71;94901.84;4994326;28;20310;-86
2021/04/30 09:42:16;;;;;;;10.27;9.10;;;;;;;16.21;58.84;94903.09;4994120;28;20842;-85
2021/04/30 09:44:43;;;;;;;10.43;9.53;;;;;;;16.10;58.64;94893.53;4994362;28;20699;-85
2021/04/30 09:47:14;;;;;;;9.87;8.77;;;;;;;16.51;57.62;94894.38;4994419;28;20617;-86
2021/04/30 09:49:40;;;;;;;9.48;8.35;;;;;;;16.41;58.29;94889.75;4993013;28;20519;-85
2021/04/30 09:52:08;;;;;;;9.43;8.55;;;;;;;16.82;56.24;94887.97;4992951;28;20206;-85
2021/04/30 09:54:35;;;;;;;9.18;8.43;;;;;;;16.72;57.64;94888.56;4993123;28;20231;-86
2021/04/30 09:57:09;;;;;;;9.68;8.77;;;;;;;16.82;56.21;94886.16;4994174;28;20313;-85
2021/04/30 09:59:37;;;;;;;9.57;7.32;;;;;;;16.81;56.20;94879.38;4993661;28;20686;-86
2021/04/30 10:02:22;;;;;;;7.25;6.60;;;;;;;16.72;56.18;94875.56;4993494;28;20258;-86
2021/04/30 10:04:49;;;;;;;8.27;7.57;;;;;;;16.82;55.63;94877.56;4993481;28;20676;-86
2021/04/30 10:07:26;;;;;;;7.60;6.90;;;;;;;17.31;55.78;94873.47;4993844;28;20206;-86
2021/04/30 10:10:01;;;;;;;7.35;6.65;;;;;;;17.56;53.80;94879.06;4993090;28;20227;-87
2021/04/30 10:12:28;;;;;;;7.07;6.35;;;;;;;17.57;55.06;94880.66;4993833;28;20214;-85
2021/04/30 10:14:55;;;;;;;7.25;6.65;;;;;;;17.29;54.88;94870.31;4994772;28;20223;-85
2021/04/30 10:17:21;;;;;;;7.30;6.60;;;;;;;17.48;54.86;94870.88;4994326;28;20766;-85
2021/04/30 10:19:49;;;;;;;6.43;5.93;;;;;;;17.84;54.63;94867.81;4993807;28;20208;-86
2021/04/30 10:22:20;;;;;;;7.07;6.28;;;;;;;18.09;53.12;94872.56;4991704;28;20210;-85
2021/04/30 10:24:49;;;;;;;5.97;5.47;;;;;;;18.24;51.37;94872.00;4985934;28;20206;-85
2021/04/30 10:27:28;;;;;;;6.10;5.50;;;;;;;18.27;52.76;94859.28;4993456;28;20697;-86
2021/04/30 10:30:04;;;;;;;5.03;4.63;;;;;;;18.69;50.82;94858.72;4993038;28;20212;-85
2021/04/30 10:32:37;;;;;;;5.65;5.15;;;;;;;18.59;50.92;94859.41;4993379;28;20199;-85
2021/04/30 10:35:07;;;;;;;5.45;5.05;;;;;;;18.25;50.06;94861.34;4991055;28;20285;-86
2021/04/30 10:37:34;;;;;;;5.70;5.25;;;;;;;17.88;51.51;94845.47;4993333;28;20480;-86
2021/04/30 10:40:03;;;;;;;6.93;5.20;;;;;;;17.78;53.28;94845.31;4991865;28;20223;-85
2021/04/30 10:42:39;;;;;;;5.60;5.15;;;;;;;17.47;53.41;94836.25;4993230;28;20211;-84
2021/04/30 10:45:10;;;;;;;5.97;5.45;;;;;;;17.79;53.25;94833.88;4992528;28;20278;-86
2021/04/30 10:47:36;;;;;;;5.78;5.28;;;;;;;17.91;52.94;94834.56;4993288;28;20206;-86
2021/04/30 10:50:17;;;;;;;6.18;5.60;;;;;;;18.01;51.70;94833.91;4993005;28;20251;-87
2021/04/30 10:52:45;;;;;;;5.40;4.80;;;;;;;18.49;51.88;94832.41;4993356;28;20287;-86
2021/04/30 10:55:16;;;;;;;6.13;5.55;;;;;;;18.66;51.36;94837.59;4991882;28;20219;-86
2021/04/30 10:57:53;;;;;;;4.80;4.40;;;;;;;18.70;50.20;94831.63;4992207;28;20202;-87
2021/04/30 11:00:24;;;;;;;4.57;4.20;;;;;;;18.51;51.17;94831.13;4977503;28;20250;-87
2021/04/30 11:03:12;;;;;;;5.75;5.20;;;;;;;18.58;50.63;94829.13;4993485;28;20691;-85
2021/04/30 11:05:52;;;;;;;5.60;5.10;;;;;;;18.79;50.19;94821.56;4993301;28;20203;-86
2021/04/30 11:08:18;;;;;;;5.10;4.70;;;;;;;19.13;50.46;94815.06;4993381;28;20203;-86
2021/04/30 11:10:44;;;;;;;5.30;4.80;;;;;;;19.32;49.07;94820.72;4991861;28;20235;-86
2021/04/30 11:13:17;;;;;;;4.97;4.53;;;;;;;19.05;49.04;94827.81;4993820;28;20223;-86
2021/04/30 11:15:55;;;;;;;5.05;4.65;;;;;;;19.21;49.29;94819.06;4992893;28;20246;-85
2021/04/30 11:18:22;;;;;;;5.78;5.38;;;;;;;18.77;50.05;94815.78;4993860;28;20203;-86
2021/04/30 11:21:15;;;;;;;5.15;4.75;;;;;;;19.17;49.97;94808.34;4997084;28;20227;-85
2021/04/30 11:23:47;;;;;;;5.40;4.97;;;;;;;19.29;48.92;94808.94;4974294;28;20204;-86
2021/04/30 11:26:17;;;;;;;5.80;5.30;;;;;;;19.11;50.00;94801.50;4996569;28;20238;-85
2021/04/30 11:29:13;;;;;;;5.10;4.60;;;;;;;19.26;49.41;94796.38;4996544;28;20203;-85